Alyeska Resort
Hourly Weather - Base Weather Site
ALY_BASE_HR 10/21/2017
CLICK TO VIEW GRAPH!!

        DATE  TIME   Air  BATT   H2o   H2o   Rel
                    Temp  Volt  Inch Since  Hum%
                      F   AVG   1HR  0600   AVG

  10/21/2017 12:00    27 14.08  0.03  0.03    91
  10/21/2017 11:00    27 14.10  0.00  0.00    92
  10/21/2017 10:00    26 14.11  0.00  0.00    93
  10/21/2017 09:00    25 14.12  0.00  0.00    92
  10/21/2017 08:00    25 14.12  0.00  0.00    92
  10/21/2017 07:00    25 14.12  0.00  0.00    93
  10/21/2017 06:00    25 14.11  0.00  0.03    94
  10/21/2017 05:00    25 14.11  0.01  0.03    93
  10/21/2017 04:00    25 14.11  0.01  0.02    92
  10/21/2017 03:00    26 14.11  0.01  0.01    84
  10/21/2017 02:00    26 14.11  0.00  0.00    80
  10/21/2017 01:00    26 14.12  0.00  0.00    79
  10/20/2017 24:00    26 14.12  0.00  0.00    79
  10/20/2017 23:00    26 14.11  0.00  0.00    78
  10/20/2017 22:00    25 14.11  0.00  0.00    77
  10/20/2017 21:00    26 14.10  0.00  0.00    74
  10/20/2017 20:00    25 14.09  0.00  0.00    73
  10/20/2017 19:00    26 14.06  0.00  0.00    68
  10/20/2017 18:00    29 14.02  0.00  0.00    55
  10/20/2017 17:00    30 14.00  0.00  0.00    51
  10/20/2017 16:00    31 14.04  0.00  0.00    48
  10/20/2017 15:00    28 14.12  0.00  0.00    54
  10/20/2017 14:00    23 14.22  0.00  0.00    66
  10/20/2017 13:00    21 14.26  0.00  0.00    70


CLICK TO VIEW GRAPH!!